createdAt,value
2018-12-13T00:00:46.439Z,29.00
2018-12-13T00:01:46.391Z,30.50
2018-12-13T00:02:46.366Z,32.20
2018-12-13T00:03:46.329Z,31.30
2018-12-13T00:04:46.266Z,31.30
2018-12-13T00:05:46.213Z,30.50
2018-12-13T00:06:46.196Z,30.70
2018-12-13T00:07:46.140Z,30.50
2018-12-13T00:08:46.076Z,31.20
2018-12-13T00:09:46.026Z,30.90
2018-12-13T00:10:45.999Z,31.20
2018-12-13T00:11:45.969Z,30.10
2018-12-13T00:12:45.979Z,30.60
2018-12-13T00:13:45.902Z,31.60
2018-12-13T00:14:45.810Z,31.10
2018-12-13T00:15:45.754Z,27.80
2018-12-13T00:16:45.705Z,30.00
2018-12-13T00:17:45.745Z,29.30
2018-12-13T00:18:45.654Z,28.30
2018-12-13T00:19:45.561Z,28.50
2018-12-13T00:20:45.569Z,31.00
2018-12-13T00:21:45.477Z,29.90
2018-12-13T00:22:45.463Z,28.50
2018-12-13T00:23:45.405Z,29.50
2018-12-13T00:24:45.387Z,30.10
2018-12-13T00:25:45.325Z,29.50
2018-12-13T00:26:45.262Z,27.70
2018-12-13T00:27:45.251Z,29.20
2018-12-13T00:28:45.163Z,28.40
2018-12-13T00:29:45.135Z,29.00
2018-12-13T00:30:45.092Z,30.50
2018-12-13T00:31:45.011Z,29.70
2018-12-13T00:32:44.969Z,27.50
2018-12-13T00:33:44.945Z,28.10
2018-12-13T00:34:44.878Z,27.90
2018-12-13T00:35:44.859Z,29.00
2018-12-13T00:36:44.781Z,28.40
2018-12-13T00:37:44.741Z,26.70
2018-12-13T00:38:44.702Z,28.00
2018-12-13T00:39:44.679Z,28.90
2018-12-13T00:40:44.610Z,30.30
2018-12-13T00:41:44.558Z,28.70
2018-12-13T00:42:44.523Z,29.60
2018-12-13T00:43:44.488Z,30.40
2018-12-13T00:44:44.425Z,29.30
2018-12-13T00:45:44.428Z,27.70
2018-12-13T00:46:44.340Z,29.40
2018-12-13T00:47:44.304Z,27.10
2018-12-13T00:48:44.252Z,26.80
2018-12-13T00:49:44.196Z,28.20
2018-12-13T00:50:44.148Z,29.40
2018-12-13T00:51:44.117Z,28.10
2018-12-13T00:52:44.068Z,28.90
2018-12-13T00:53:44.046Z,29.30
2018-12-13T00:54:43.987Z,29.50
2018-12-13T00:55:43.944Z,27.80
2018-12-13T00:56:43.897Z,27.40
2018-12-13T00:57:43.897Z,25.80
2018-12-13T00:58:43.813Z,28.20
2018-12-13T00:59:43.801Z,28.80
2018-12-13T01:00:43.695Z,26.90
2018-12-13T01:01:43.688Z,28.60
2018-12-13T01:02:43.622Z,25.80
2018-12-13T01:03:43.614Z,27.70
2018-12-13T01:04:43.550Z,27.40
2018-12-13T01:05:43.496Z,29.90
2018-12-13T01:06:46.113Z,27.90
2018-12-13T01:07:43.396Z,29.00
2018-12-13T01:08:43.360Z,29.90
2018-12-13T01:09:43.295Z,29.70
2018-12-13T01:10:43.248Z,30.30
2018-12-13T01:11:43.198Z,30.00
2018-12-13T01:12:43.202Z,29.10
2018-12-13T01:13:43.115Z,28.90
2018-12-13T01:14:43.098Z,30.70
2018-12-13T01:15:43.016Z,30.70
2018-12-13T01:16:42.996Z,30.30
2018-12-13T01:17:42.968Z,29.50
2018-12-13T01:18:42.889Z,28.40
2018-12-13T01:19:42.823Z,29.40
2018-12-13T01:20:42.834Z,28.70
2018-12-13T01:21:42.783Z,28.30
2018-12-13T01:22:42.700Z,29.90
2018-12-13T01:23:42.691Z,30.00
2018-12-13T01:24:42.657Z,29.30
2018-12-13T01:25:42.588Z,28.90
2018-12-13T01:26:42.515Z,29.90
2018-12-13T01:27:42.537Z,29.70
2018-12-13T01:28:42.427Z,29.70
2018-12-13T01:29:42.378Z,28.10
2018-12-13T01:30:42.383Z,29.30
2018-12-13T01:31:42.288Z,28.50
2018-12-13T01:34:15.700Z,27.30
2018-12-13T01:35:15.643Z,28.00
2018-12-13T01:37:08.614Z,28.10
2018-12-13T01:38:08.643Z,26.80
2018-12-13T01:40:01.617Z,27.20
2018-12-13T01:41:01.710Z,26.60
2018-12-13T01:44:26.771Z,27.30
2018-12-13T01:45:26.666Z,26.80
2018-12-13T01:47:21.350Z,28.00
2018-12-13T01:48:21.050Z,26.90
2018-12-13T01:50:15.222Z,28.30
2018-12-13T01:51:14.316Z,28.10
2018-12-13T01:53:08.020Z,28.90
2018-12-13T01:54:07.875Z,28.20
2018-12-13T01:56:00.961Z,26.70
2018-12-13T01:57:00.847Z,27.70
2018-12-13T01:58:53.926Z,27.80
2018-12-13T01:59:54.510Z,28.80
2018-12-13T02:01:48.284Z,27.40
2018-12-13T02:02:48.365Z,29.00
2018-12-13T02:03:48.181Z,28.80
2018-12-13T02:04:48.266Z,28.00
2018-12-13T02:05:48.153Z,27.60
2018-12-13T02:06:47.985Z,28.10
2018-12-13T02:07:47.966Z,27.70
2018-12-13T02:08:47.915Z,27.70
2018-12-13T02:09:47.854Z,28.50
2018-12-13T02:10:47.810Z,28.20
2018-12-13T02:11:47.792Z,27.80
2018-12-13T02:12:47.746Z,29.40
2018-12-13T02:13:47.817Z,29.90
2018-12-13T02:14:47.628Z,30.80
2018-12-13T02:15:47.602Z,28.80
2018-12-13T02:16:47.561Z,28.60
2018-12-13T02:17:47.517Z,30.00
2018-12-13T02:18:47.964Z,27.40
2018-12-13T02:19:47.501Z,28.40
2018-12-13T02:20:47.377Z,27.80
2018-12-13T02:21:47.293Z,26.40
2018-12-13T02:22:47.261Z,26.00
2018-12-13T02:23:47.222Z,27.50
2018-12-13T02:24:47.178Z,28.40
2018-12-13T02:25:47.135Z,28.70
2018-12-13T02:26:47.095Z,28.80
2018-12-13T02:27:47.018Z,28.40
2018-12-13T02:28:46.995Z,29.80
2018-12-13T02:29:46.977Z,29.40
2018-12-13T02:30:46.907Z,28.80
2018-12-13T02:31:46.846Z,27.00
2018-12-13T02:32:46.793Z,27.80
2018-12-13T02:33:46.792Z,27.30
2018-12-13T02:34:46.722Z,27.90
2018-12-13T02:35:46.694Z,28.10
2018-12-13T02:36:46.614Z,28.50
2018-12-13T02:37:46.567Z,27.80
2018-12-13T02:38:46.521Z,29.00
2018-12-13T02:39:46.491Z,27.20
2018-12-13T02:40:46.428Z,28.00
2018-12-13T02:41:46.419Z,30.10
2018-12-13T02:42:46.342Z,27.90
2018-12-13T02:43:46.299Z,30.30
2018-12-13T02:44:46.245Z,29.10
2018-12-13T02:45:46.213Z,28.40
2018-12-13T02:46:46.152Z,29.20
2018-12-13T02:47:46.108Z,28.50
2018-12-13T02:48:46.071Z,30.70
2018-12-13T02:49:46.017Z,29.80
2018-12-13T02:50:45.974Z,29.00
2018-12-13T02:51:45.959Z,30.20
2018-12-13T02:52:45.880Z,30.10
2018-12-13T02:53:45.854Z,29.80
2018-12-13T02:54:45.824Z,28.80
2018-12-13T02:55:45.765Z,30.20
2018-12-13T02:56:45.707Z,30.60
2018-12-13T02:57:45.655Z,28.90
2018-12-13T02:58:45.623Z,30.00
2018-12-13T02:59:45.607Z,31.00
2018-12-13T03:00:45.536Z,30.00
2018-12-13T03:01:45.478Z,29.70
2018-12-13T03:02:45.445Z,30.10
2018-12-13T03:03:45.392Z,29.80
2018-12-13T03:04:45.363Z,31.80
2018-12-13T03:05:45.287Z,30.70
2018-12-13T03:06:45.238Z,30.10
2018-12-13T03:07:45.184Z,30.40
2018-12-13T03:08:45.154Z,31.90
2018-12-13T03:09:45.098Z,31.90
2018-12-13T03:10:45.082Z,31.30
2018-12-13T03:11:45.023Z,30.60
2018-12-13T03:12:44.971Z,31.00
2018-12-13T03:13:44.915Z,31.80
2018-12-13T03:14:44.895Z,31.20
2018-12-13T03:15:44.821Z,31.50
2018-12-13T03:16:44.815Z,30.70
2018-12-13T03:17:44.731Z,30.40
2018-12-13T03:18:44.722Z,29.80
2018-12-13T03:19:44.680Z,30.80
2018-12-13T03:20:44.589Z,31.30
2018-12-13T03:21:44.549Z,29.60
2018-12-13T03:22:44.524Z,31.90
2018-12-13T03:23:44.454Z,30.50
2018-12-13T03:24:44.431Z,30.30
2018-12-13T03:25:44.360Z,29.90
2018-12-13T03:26:44.975Z,29.70
2018-12-13T03:27:44.427Z,29.40
2018-12-13T03:28:44.259Z,30.90
2018-12-13T03:29:44.216Z,29.40
2018-12-13T03:30:44.131Z,29.90
2018-12-13T03:31:44.095Z,30.10
2018-12-13T03:32:44.057Z,29.60
2018-12-13T03:33:44.070Z,31.80
2018-12-13T03:34:43.942Z,33.90
2018-12-13T03:35:44.048Z,35.20
2018-12-13T03:36:43.870Z,38.30
2018-12-13T03:37:43.997Z,35.60
2018-12-13T03:38:43.792Z,35.70
2018-12-13T03:39:43.730Z,37.30
2018-12-13T03:40:43.698Z,33.50
2018-12-13T03:41:43.672Z,34.30
2018-12-13T03:42:43.603Z,35.10
2018-12-13T03:43:43.531Z,32.30
2018-12-13T03:44:43.482Z,34.10
2018-12-13T03:45:43.440Z,34.00
2018-12-13T03:46:43.397Z,34.00
2018-12-13T03:47:43.374Z,34.80
2018-12-13T03:48:43.298Z,35.20
2018-12-13T03:49:43.259Z,36.10
2018-12-13T03:50:43.245Z,35.00
2018-12-13T03:51:43.190Z,34.70
2018-12-13T03:52:43.157Z,36.20
2018-12-13T03:53:43.096Z,35.40
2018-12-13T03:54:43.029Z,33.00
2018-12-13T03:55:43.024Z,33.30
2018-12-13T03:56:42.947Z,32.60
2018-12-13T03:57:42.907Z,33.00
2018-12-13T03:58:42.891Z,32.80
2018-12-13T03:59:42.816Z,31.40
2018-12-13T04:00:42.777Z,31.20
2018-12-13T04:01:42.713Z,30.90
2018-12-13T04:02:42.810Z,32.80
2018-12-13T04:03:42.673Z,31.90
2018-12-13T04:04:42.595Z,33.70
2018-12-13T04:05:42.523Z,38.50
2018-12-13T04:06:42.520Z,36.10
2018-12-13T04:07:42.425Z,33.70
2018-12-13T04:08:42.405Z,32.80
2018-12-13T04:09:42.348Z,32.40
2018-12-13T04:10:42.385Z,33.30
2018-12-13T04:11:42.303Z,31.70
2018-12-13T04:12:42.217Z,30.80
2018-12-13T04:13:42.159Z,31.30
2018-12-13T04:14:42.155Z,32.30
2018-12-13T04:15:42.115Z,31.30
2018-12-13T04:16:42.032Z,31.40
2018-12-13T04:17:42.019Z,31.10
2018-12-13T04:18:41.919Z,29.60
2018-12-13T04:19:41.933Z,30.50
2018-12-13T04:20:41.870Z,30.90
2018-12-13T04:21:41.803Z,31.80
2018-12-13T04:22:41.828Z,31.30
2018-12-13T04:23:41.713Z,30.40
2018-12-13T04:24:41.721Z,31.20
2018-12-13T04:25:41.704Z,30.00
2018-12-13T04:26:41.583Z,31.40
2018-12-13T04:27:41.518Z,30.40
2018-12-13T04:28:41.480Z,31.40
2018-12-13T04:29:41.437Z,32.40
2018-12-13T04:30:41.383Z,34.70
2018-12-13T04:31:41.329Z,30.80
2018-12-13T04:32:41.297Z,31.30
2018-12-13T04:33:41.238Z,33.30
2018-12-13T04:34:41.190Z,30.80
2018-12-13T04:35:41.182Z,31.50
2018-12-13T04:36:41.147Z,34.60
2018-12-13T04:37:41.081Z,30.90
2018-12-13T04:38:41.054Z,30.20
2018-12-13T04:39:40.958Z,32.10
2018-12-13T04:40:40.936Z,31.60
2018-12-13T04:41:40.884Z,32.50
2018-12-13T04:42:40.832Z,32.90
2018-12-13T04:43:40.783Z,31.20
2018-12-13T04:44:40.763Z,31.50
2018-12-13T04:45:40.782Z,32.30
2018-12-13T04:46:40.684Z,32.00
2018-12-13T04:47:40.624Z,31.70
2018-12-13T04:48:40.563Z,30.70
2018-12-13T04:49:40.516Z,31.30
2018-12-13T04:50:40.456Z,32.30
2018-12-13T04:51:40.417Z,33.60
2018-12-13T04:52:40.368Z,33.50
2018-12-13T04:53:40.358Z,34.60
2018-12-13T04:54:40.275Z,31.70
2018-12-13T04:55:40.248Z,32.30
2018-12-13T04:56:40.180Z,34.50
2018-12-13T04:57:40.156Z,34.30
2018-12-13T04:58:40.105Z,34.80
2018-12-13T04:59:40.057Z,35.20
2018-12-13T05:00:40.022Z,35.60
2018-12-13T05:01:39.995Z,35.10
2018-12-13T05:02:40.003Z,33.30
2018-12-13T05:03:39.899Z,34.20
2018-12-13T05:04:39.837Z,33.90
2018-12-13T05:05:40.489Z,33.70
2018-12-13T05:06:39.742Z,32.40
2018-12-13T05:07:41.892Z,32.00
2018-12-13T05:08:39.652Z,33.50
2018-12-13T05:09:39.608Z,33.20
2018-12-13T05:10:39.551Z,33.90
2018-12-13T05:11:39.488Z,32.30
2018-12-13T05:12:39.465Z,33.00
2018-12-13T05:13:39.518Z,32.70
2018-12-13T05:14:39.361Z,33.20
2018-12-13T05:15:39.329Z,34.00
2018-12-13T05:16:39.282Z,32.70
2018-12-13T05:17:39.223Z,32.50
2018-12-13T05:18:39.182Z,32.20
2018-12-13T05:19:39.198Z,32.40
2018-12-13T05:20:39.111Z,32.60
2018-12-13T05:21:39.089Z,32.20
2018-12-13T05:22:39.001Z,32.80
2018-12-13T05:23:38.944Z,32.50
2018-12-13T05:24:38.900Z,33.10
2018-12-13T05:25:38.853Z,31.70
2018-12-13T05:26:38.801Z,30.70
2018-12-13T05:27:38.763Z,31.60
2018-12-13T05:28:38.729Z,31.50
2018-12-13T05:29:38.671Z,33.20
2018-12-13T05:30:38.641Z,32.90
2018-12-13T05:31:38.572Z,32.60
2018-12-13T05:32:38.532Z,31.50
2018-12-13T05:33:38.511Z,32.00
2018-12-13T05:34:38.481Z,31.40
2018-12-13T05:35:38.389Z,32.20
2018-12-13T05:36:38.350Z,33.30
2018-12-13T05:37:38.293Z,33.10
2018-12-13T05:38:38.257Z,31.50
2018-12-13T05:39:38.207Z,32.00
2018-12-13T05:40:38.180Z,33.10
2018-12-13T05:41:38.108Z,32.00
2018-12-13T05:42:38.063Z,30.60
2018-12-13T05:43:38.058Z,31.80
2018-12-13T05:44:37.993Z,32.60
2018-12-13T05:45:37.935Z,31.90
2018-12-13T05:46:37.923Z,32.60
2018-12-13T05:47:37.848Z,32.60
2018-12-13T05:48:37.807Z,31.60
2018-12-13T05:49:37.971Z,31.50
2018-12-13T05:50:37.749Z,34.10
2018-12-13T05:51:37.659Z,33.40
2018-12-13T05:52:37.609Z,32.90
2018-12-13T05:53:37.701Z,33.10
2018-12-13T05:54:37.531Z,32.00
2018-12-13T05:55:37.501Z,33.30
2018-12-13T05:56:37.435Z,33.20
2018-12-13T05:57:37.390Z,33.30
2018-12-13T05:58:37.333Z,33.80
2018-12-13T05:59:37.289Z,33.10
2018-12-13T06:00:37.239Z,33.70
2018-12-13T06:01:37.200Z,33.80
2018-12-13T06:02:37.159Z,32.60
2018-12-13T06:03:37.128Z,32.00
2018-12-13T06:04:37.087Z,31.60
2018-12-13T06:05:37.012Z,32.30
2018-12-13T06:06:36.988Z,32.10
2018-12-13T06:07:36.932Z,33.10
2018-12-13T06:08:36.882Z,30.40
2018-12-13T06:09:36.830Z,32.90
2018-12-13T06:10:36.782Z,32.30
2018-12-13T06:11:36.727Z,32.00
2018-12-13T06:12:36.680Z,29.30
2018-12-13T06:13:36.635Z,31.40
2018-12-13T06:14:36.605Z,31.10
2018-12-13T06:15:36.526Z,30.10
2018-12-13T06:16:36.509Z,32.10
2018-12-13T06:17:36.452Z,31.40
2018-12-13T06:18:36.427Z,32.30
2018-12-13T06:19:36.355Z,31.70
2018-12-13T06:20:36.402Z,30.30
2018-12-13T06:21:36.975Z,32.40
2018-12-13T06:22:36.205Z,31.30
2018-12-13T06:23:36.187Z,30.90
2018-12-13T06:24:36.123Z,30.30
2018-12-13T06:25:36.084Z,33.30
2018-12-13T06:26:36.031Z,32.00
2018-12-13T06:27:35.985Z,32.30
2018-12-13T06:28:35.981Z,31.50
2018-12-13T06:29:41.689Z,32.40
2018-12-13T06:30:35.881Z,32.50
2018-12-13T06:31:35.825Z,31.80
2018-12-13T06:32:35.826Z,31.40
2018-12-13T06:33:35.709Z,33.20
2018-12-13T06:34:35.672Z,34.30
2018-12-13T06:35:35.632Z,33.50
2018-12-13T06:36:35.576Z,32.90
2018-12-13T06:37:35.521Z,35.70
2018-12-13T06:38:35.514Z,35.20
2018-12-13T06:39:35.434Z,37.70
2018-12-13T06:40:35.371Z,33.10
2018-12-13T06:41:35.348Z,34.20
2018-12-13T06:42:35.298Z,34.00
2018-12-13T06:43:35.285Z,34.40
2018-12-13T06:44:35.200Z,33.10
2018-12-13T06:45:35.144Z,34.00
2018-12-13T06:46:35.098Z,34.80
2018-12-13T06:47:35.102Z,33.40
2018-12-13T06:48:35.045Z,33.90
2018-12-13T06:49:34.967Z,34.10
2018-12-13T06:50:34.960Z,36.30
2018-12-13T06:51:34.871Z,34.80
2018-12-13T06:52:34.848Z,35.10
2018-12-13T06:53:34.826Z,34.60
2018-12-13T06:54:34.760Z,33.60
2018-12-13T06:55:34.687Z,35.40
2018-12-13T06:56:34.642Z,34.00
2018-12-13T06:57:34.661Z,36.50
2018-12-13T06:58:34.547Z,35.80
2018-12-13T06:59:34.535Z,35.70
2018-12-13T07:00:34.467Z,34.90
2018-12-13T07:01:34.473Z,36.00
2018-12-13T07:02:34.390Z,35.90
2018-12-13T07:03:34.330Z,34.40
2018-12-13T07:04:34.301Z,33.70
2018-12-13T07:05:34.255Z,32.60
2018-12-13T07:06:34.188Z,32.90
2018-12-13T07:07:34.156Z,32.70
2018-12-13T07:08:34.102Z,31.20
2018-12-13T07:09:34.066Z,31.40
2018-12-13T07:10:34.020Z,31.10
2018-12-13T07:11:33.964Z,31.50
2018-12-13T07:12:33.917Z,32.10
2018-12-13T07:13:33.877Z,32.10
2018-12-13T07:14:33.830Z,32.50
2018-12-13T07:15:33.776Z,30.70
2018-12-13T07:16:33.757Z,32.10
2018-12-13T07:17:33.712Z,33.60
2018-12-13T07:18:33.645Z,33.80
2018-12-13T07:19:33.583Z,34.50
2018-12-13T07:20:33.528Z,33.20
2018-12-13T07:21:33.481Z,33.90
2018-12-13T07:22:33.445Z,32.50
2018-12-13T07:23:33.409Z,32.20
2018-12-13T07:24:33.506Z,35.00
2018-12-13T07:25:33.312Z,32.50
2018-12-13T07:26:33.300Z,35.10
2018-12-13T07:27:33.209Z,35.70
2018-12-13T07:28:33.158Z,33.90
2018-12-13T07:29:33.114Z,35.60
2018-12-13T07:30:33.068Z,35.10
2018-12-13T07:31:33.040Z,35.00
2018-12-13T07:32:32.984Z,35.30
2018-12-13T07:33:32.953Z,36.20
2018-12-13T07:34:32.905Z,34.50
2018-12-13T07:35:32.867Z,35.80
2018-12-13T07:36:32.839Z,32.40
2018-12-13T07:37:32.766Z,32.70
2018-12-13T07:38:32.701Z,34.40
2018-12-13T07:39:32.689Z,33.20
2018-12-13T07:40:32.601Z,33.60
2018-12-13T07:41:32.565Z,32.30
2018-12-13T07:42:32.512Z,31.70
2018-12-13T07:43:32.463Z,32.40
2018-12-13T07:44:32.422Z,32.20
2018-12-13T07:45:32.406Z,32.80
2018-12-13T07:46:32.333Z,33.30
2018-12-13T07:47:32.301Z,33.30
2018-12-13T07:48:32.242Z,34.60
2018-12-13T07:49:32.195Z,35.50
2018-12-13T07:50:32.140Z,33.90
2018-12-13T07:51:32.123Z,33.50
2018-12-13T07:52:32.051Z,34.00
2018-12-13T07:53:32.020Z,34.60
2018-12-13T07:54:31.987Z,35.30
2018-12-13T07:55:31.956Z,35.70
2018-12-13T07:56:31.886Z,34.90
2018-12-13T07:57:31.847Z,34.50
2018-12-13T07:58:31.775Z,35.40
2018-12-13T07:59:31.757Z,33.10
2018-12-13T08:00:31.668Z,32.90
2018-12-13T08:01:32.594Z,33.80
2018-12-13T08:02:31.610Z,34.40
2018-12-13T08:03:31.551Z,37.00
2018-12-13T08:04:31.501Z,35.20
2018-12-13T08:05:31.491Z,35.60
2018-12-13T08:06:31.404Z,37.30
2018-12-13T08:07:31.352Z,36.30
2018-12-13T08:08:31.325Z,37.00
2018-12-13T08:09:31.279Z,37.50
2018-12-13T08:10:31.257Z,37.00
2018-12-13T08:11:31.164Z,37.60
2018-12-13T08:12:31.152Z,37.90
2018-12-13T08:13:31.090Z,35.50
2018-12-13T08:14:31.034Z,37.90
2018-12-13T08:15:30.988Z,37.30
2018-12-13T08:16:30.949Z,38.20
2018-12-13T08:17:30.891Z,39.40
2018-12-13T08:18:30.881Z,40.50
2018-12-13T08:19:30.839Z,39.20
2018-12-13T08:20:30.762Z,40.30
2018-12-13T08:21:30.719Z,38.60
2018-12-13T08:22:30.690Z,40.30
2018-12-13T08:23:30.644Z,38.20
2018-12-13T08:24:30.582Z,39.90
2018-12-13T08:25:30.560Z,39.90
2018-12-13T08:26:30.494Z,41.00
2018-12-13T08:27:30.451Z,39.10
2018-12-13T08:28:30.423Z,40.40
2018-12-13T08:29:30.369Z,41.20
2018-12-13T08:30:30.303Z,42.20
2018-12-13T08:31:30.244Z,44.70
2018-12-13T08:32:30.267Z,41.50
2018-12-13T08:33:30.189Z,42.30
2018-12-13T08:34:30.127Z,41.50
2018-12-13T08:35:30.087Z,43.90
2018-12-13T08:36:30.026Z,42.90
2018-12-13T08:37:29.985Z,41.00
2018-12-13T08:38:29.984Z,44.10
2018-12-13T08:39:29.907Z,43.30
2018-12-13T08:40:29.835Z,41.50
2018-12-13T08:41:29.802Z,44.50
2018-12-13T08:42:29.744Z,44.00
2018-12-13T08:43:29.719Z,42.80
2018-12-13T08:44:29.682Z,43.90
2018-12-13T08:45:29.647Z,42.30
2018-12-13T08:46:29.616Z,43.90
2018-12-13T08:47:29.529Z,43.70
2018-12-13T08:48:29.486Z,43.90
2018-12-13T08:49:29.470Z,42.50
2018-12-13T08:50:29.463Z,43.50
2018-12-13T08:51:29.344Z,44.20
2018-12-13T08:52:29.298Z,41.40
2018-12-13T08:53:29.292Z,41.20
2018-12-13T08:54:29.234Z,39.70
2018-12-13T08:55:29.179Z,38.50
2018-12-13T08:56:29.108Z,39.10
2018-12-13T08:57:29.073Z,40.30
2018-12-13T08:58:29.019Z,40.10
2018-12-13T08:59:29.001Z,40.40
2018-12-13T09:00:28.956Z,38.10
2018-12-13T09:01:28.877Z,39.10
2018-12-13T09:02:28.851Z,39.70
2018-12-13T09:03:28.838Z,39.10
2018-12-13T09:04:28.751Z,39.50
2018-12-13T09:05:28.785Z,37.50
2018-12-13T09:06:28.672Z,37.50
2018-12-13T09:07:28.606Z,37.30
2018-12-13T09:08:33.593Z,39.40
2018-12-13T09:09:28.525Z,36.50
2018-12-13T09:10:28.505Z,38.00
2018-12-13T09:11:28.442Z,37.60
2018-12-13T09:12:28.401Z,37.10
2018-12-13T09:13:28.348Z,37.90
2018-12-13T09:14:28.329Z,36.30
2018-12-13T09:15:28.249Z,37.20
2018-12-13T09:16:31.447Z,35.80
2018-12-13T09:17:28.169Z,35.50
2018-12-13T09:18:28.191Z,36.70
2018-12-13T09:19:28.192Z,36.20
2018-12-13T09:20:28.037Z,37.50
2018-12-13T09:21:27.988Z,36.00
2018-12-13T09:22:27.938Z,37.50
2018-12-13T09:23:27.921Z,34.90
2018-12-13T09:24:27.877Z,37.70
2018-12-13T09:25:27.812Z,36.40
2018-12-13T09:26:27.796Z,36.20
2018-12-13T09:27:27.770Z,37.00
2018-12-13T09:28:27.686Z,35.90
2018-12-13T09:29:27.646Z,35.80
2018-12-13T09:30:27.597Z,34.90
2018-12-13T09:31:27.579Z,35.00
2018-12-13T09:32:27.506Z,36.60
2018-12-13T09:33:27.607Z,36.50
2018-12-13T09:34:27.435Z,37.40
2018-12-13T09:35:27.364Z,36.90
2018-12-13T09:36:27.353Z,35.90
2018-12-13T09:37:27.296Z,35.00
2018-12-13T09:38:27.454Z,34.50
2018-12-13T09:39:27.214Z,34.40
2018-12-13T09:40:27.171Z,33.40
2018-12-13T09:41:27.100Z,32.90
2018-12-13T09:42:27.075Z,33.70
2018-12-13T09:43:27.043Z,34.00
2018-12-13T09:44:26.985Z,34.20
2018-12-13T09:45:26.929Z,32.80
2018-12-13T09:46:26.929Z,33.40
2018-12-13T09:47:26.838Z,32.90
2018-12-13T09:48:26.847Z,32.10
2018-12-13T09:49:26.761Z,32.50
2018-12-13T09:50:26.760Z,34.00
2018-12-13T09:51:26.710Z,32.80
2018-12-13T09:52:26.629Z,34.10
2018-12-13T09:53:26.608Z,39.70
2018-12-13T09:54:26.549Z,37.50
2018-12-13T09:55:26.495Z,34.70
2018-12-13T09:56:26.472Z,34.40
2018-12-13T09:57:26.400Z,37.40
2018-12-13T09:58:26.404Z,34.40
2018-12-13T09:59:26.342Z,32.60
2018-12-13T10:00:26.290Z,33.10
2018-12-13T10:01:26.303Z,33.40
2018-12-13T10:02:26.196Z,32.80
2018-12-13T10:03:26.211Z,31.20
2018-12-13T10:04:26.109Z,32.90
2018-12-13T10:05:26.094Z,30.80
2018-12-13T10:06:26.110Z,30.70
2018-12-13T10:07:26.022Z,33.10
2018-12-13T10:08:25.964Z,34.00
2018-12-13T10:09:25.927Z,34.00
2018-12-13T10:10:25.894Z,32.40
2018-12-13T10:11:25.822Z,33.40
2018-12-13T10:12:25.825Z,30.90
2018-12-13T10:13:25.822Z,33.30
2018-12-13T10:14:25.734Z,31.90
2018-12-13T10:15:31.818Z,32.10
2018-12-13T10:16:25.632Z,32.60
2018-12-13T10:17:25.595Z,32.90
2018-12-13T10:18:25.589Z,32.10
2018-12-13T10:19:25.542Z,32.80
2018-12-13T10:20:25.478Z,32.00
2018-12-13T10:21:25.450Z,30.80
2018-12-13T10:22:25.447Z,32.00
2018-12-13T10:23:25.342Z,30.40
2018-12-13T10:24:25.332Z,31.80
2018-12-13T10:25:25.288Z,31.30
2018-12-13T10:26:25.267Z,31.90
2018-12-13T10:27:25.221Z,33.40
2018-12-13T10:28:25.169Z,31.10
2018-12-13T10:29:25.149Z,31.40
2018-12-13T10:30:25.091Z,31.10
2018-12-13T10:31:25.054Z,31.50
2018-12-13T10:32:25.040Z,30.30
2018-12-13T10:33:24.987Z,30.50
2018-12-13T10:34:24.940Z,31.00
2018-12-13T10:35:24.899Z,28.10
2018-12-13T10:36:25.660Z,29.30
2018-12-13T10:37:24.829Z,32.50
2018-12-13T10:38:24.807Z,32.20
2018-12-13T10:39:24.757Z,32.40
2018-12-13T10:40:24.719Z,32.60
2018-12-13T10:41:24.700Z,31.40
2018-12-13T10:42:24.643Z,32.40
2018-12-13T10:43:24.623Z,32.60
2018-12-13T10:44:24.571Z,33.10
2018-12-13T10:45:24.533Z,32.50
2018-12-13T10:46:24.525Z,33.20
2018-12-13T10:47:24.442Z,31.20
2018-12-13T10:48:24.424Z,33.40
2018-12-13T10:49:24.385Z,33.00
2018-12-13T10:50:24.331Z,32.30
2018-12-13T10:51:24.314Z,31.90
2018-12-13T10:52:24.276Z,31.00
2018-12-13T10:53:24.229Z,31.30
2018-12-13T10:54:24.202Z,33.30
2018-12-13T10:55:24.133Z,32.40
2018-12-13T10:56:24.134Z,33.50
2018-12-13T10:57:24.049Z,31.60
2018-12-13T10:58:24.023Z,32.60
2018-12-13T10:59:23.997Z,30.90
2018-12-13T11:00:23.947Z,30.90
2018-12-13T11:01:23.908Z,29.10
2018-12-13T11:02:23.859Z,31.10
2018-12-13T11:03:23.820Z,31.10
2018-12-13T11:04:23.770Z,30.50
2018-12-13T11:05:23.750Z,31.80
2018-12-13T11:06:23.706Z,31.90
2018-12-13T11:07:23.671Z,33.20
2018-12-13T11:08:23.620Z,32.80
2018-12-13T11:09:23.570Z,33.70
2018-12-13T11:10:25.535Z,33.70
2018-12-13T11:11:23.489Z,32.80
2018-12-13T11:12:23.448Z,35.20
2018-12-13T11:13:23.425Z,33.10
2018-12-13T11:14:23.389Z,32.80
2018-12-13T11:15:23.319Z,34.60
2018-12-13T11:16:23.292Z,34.10
2018-12-13T11:17:23.305Z,36.70
2018-12-13T11:18:23.214Z,34.90
2018-12-13T11:19:23.156Z,35.80
2018-12-13T11:20:23.150Z,34.90
2018-12-13T11:21:23.079Z,35.70
2018-12-13T11:22:23.057Z,35.40
2018-12-13T11:23:22.979Z,34.80
2018-12-13T11:24:22.952Z,35.50
2018-12-13T11:25:22.911Z,34.60
2018-12-13T11:26:22.857Z,35.30
2018-12-13T11:27:22.845Z,34.80
2018-12-13T11:28:22.783Z,32.90
2018-12-13T11:29:22.765Z,40.90
2018-12-13T11:30:22.710Z,52.70
2018-12-13T11:31:22.677Z,41.80
2018-12-13T11:32:22.603Z,35.90
2018-12-13T11:33:22.556Z,35.50
2018-12-13T11:34:22.524Z,34.30
2018-12-13T11:35:22.516Z,36.90
2018-12-13T11:36:22.443Z,36.00
2018-12-13T11:37:22.415Z,34.50
2018-12-13T11:38:22.349Z,34.60
2018-12-13T11:39:22.319Z,37.30
2018-12-13T11:40:22.251Z,32.10
2018-12-13T11:41:22.213Z,34.90
2018-12-13T11:42:22.164Z,34.70
2018-12-13T11:43:22.132Z,33.50
2018-12-13T11:44:22.082Z,34.00
2018-12-13T11:45:22.093Z,34.30
2018-12-13T11:46:22.014Z,34.10
2018-12-13T11:47:22.457Z,34.20
2018-12-13T11:48:21.913Z,33.80
2018-12-13T11:49:21.882Z,35.10
2018-12-13T11:50:21.831Z,34.70
2018-12-13T11:51:21.810Z,34.70
2018-12-13T11:52:21.739Z,34.10
2018-12-13T11:53:21.687Z,34.00
2018-12-13T11:54:21.656Z,33.30
2018-12-13T11:55:21.662Z,34.40
2018-12-13T11:56:21.587Z,32.50
2018-12-13T11:57:21.579Z,32.80
2018-12-13T11:58:21.486Z,35.00
2018-12-13T11:59:21.436Z,34.30
2018-12-13T12:00:21.379Z,34.90
2018-12-13T12:01:21.351Z,32.70
2018-12-13T12:02:24.161Z,33.50
2018-12-13T12:03:21.276Z,34.10
2018-12-13T12:04:21.219Z,33.10
2018-12-13T12:05:21.181Z,32.00
2018-12-13T12:06:21.162Z,32.00
2018-12-13T12:07:21.089Z,33.50
2018-12-13T12:08:21.037Z,33.50
2018-12-13T12:09:21.033Z,32.20
2018-12-13T12:10:20.982Z,32.60
2018-12-13T12:11:20.926Z,33.60
2018-12-13T12:12:20.870Z,33.90
2018-12-13T12:13:20.821Z,33.10
2018-12-13T12:14:20.810Z,34.00
2018-12-13T12:15:20.751Z,34.60
2018-12-13T12:16:20.704Z,34.30
2018-12-13T12:17:20.648Z,32.90
2018-12-13T12:18:20.621Z,31.70
2018-12-13T12:19:20.600Z,33.90
2018-12-13T12:20:20.515Z,32.20
2018-12-13T12:21:20.530Z,32.70
2018-12-13T12:22:20.423Z,33.30
2018-12-13T12:23:20.421Z,30.80
2018-12-13T12:24:20.348Z,33.30
2018-12-13T12:25:20.311Z,33.70
2018-12-13T12:26:20.281Z,34.30
2018-12-13T12:27:20.212Z,30.20
2018-12-13T12:28:20.181Z,29.70
2018-12-13T12:29:20.138Z,31.60
2018-12-13T12:30:20.096Z,32.90
2018-12-13T12:31:20.041Z,32.10
2018-12-13T12:32:20.009Z,31.10
2018-12-13T12:33:19.959Z,31.70
2018-12-13T12:34:19.917Z,30.80
2018-12-13T12:35:19.866Z,31.90
2018-12-13T12:36:19.828Z,30.10
2018-12-13T12:37:19.782Z,30.30
2018-12-13T12:38:19.730Z,30.30
2018-12-13T12:39:19.669Z,31.00
2018-12-13T12:40:19.659Z,31.90
2018-12-13T12:41:19.653Z,30.20
2018-12-13T12:42:19.545Z,30.80
2018-12-13T12:43:19.508Z,31.40
2018-12-13T12:44:19.462Z,30.80
2018-12-13T12:45:19.421Z,29.80
2018-12-13T12:46:19.383Z,30.00
2018-12-13T12:47:19.366Z,28.80
2018-12-13T12:48:19.428Z,28.00
2018-12-13T12:49:19.293Z,29.10
2018-12-13T12:50:19.373Z,28.80
2018-12-13T12:51:19.197Z,28.00
2018-12-13T12:52:19.139Z,29.30
2018-12-13T12:53:19.108Z,29.10
2018-12-13T12:54:19.112Z,28.80
2018-12-13T12:55:19.012Z,26.70
2018-12-13T12:56:18.962Z,30.00
2018-12-13T12:57:18.929Z,27.30
2018-12-13T12:58:18.868Z,27.30
2018-12-13T12:59:18.816Z,27.60
2018-12-13T13:00:18.766Z,26.90
2018-12-13T13:01:18.734Z,27.60
2018-12-13T13:02:18.696Z,28.30
2018-12-13T13:03:18.672Z,27.90